Hlavní strana
METAR-TAF:

METAR-TAF

Letiště :

Pointe-Noire, Kongo

zeměpisná šířka: 04-49S, zeměpisná délka: 011-54E, výška: 17 m

Aktuální stav počasí

Zpráva byla vytvořena před 49 minutami, v 21:00 UTC
Jihojihozápadní vítr 10 kt
Teplota 25°C
Vlhkost vzduchu 83%
Tlak 1013 hPa
Viditelnost: 8000 m
Skoro jasno ve výšce 1000 ft
Oblačno až skoro zataženo ve výšce 2300 ft

METAR: FCPP 182100Z 20010KT 8000 FEW010 BKN023 25/22 Q1013 NOSIG

Čas: 22:49 (21:49 UTC)

Předpověď počasí

Zpráva byla vytvořena před 4 hodinami a 49 minutami, v 17:00 UTC
Předpověď platná od 18 v 18 UTC do 19 v 18 UTC
Jihojihozápadní vítr 6 kt
Viditelnost: 9000 m
Polojasno ve výšce 2000 ft

TAF: FCPP 181700Z 1818/1918 20006KT 9000 SCT020

Stav a předpovědi počasí z více než 4 000 letišť (zprávy METAR a TAF).

Červené a žluté tečky na mapě představují dostupné meteorologické stanice.

Když kurzor umístíte na tečku, zobrazí se název stanice.

Pak kliknutím zobrazíte stav a předpověď počasí.

Chcete-li změnit mapu, kliknutím na zelené tlačítko se znaménkem +mapu přiblížíte, kliknutím na zelené tlačítko se znaménkem – mapu oddálíte a kliknutím na zelené šipky přejdete na sousední mapy.


METAR-TAF: